Time,TemperatureF,DewpointF,PressureIn,WindDirection,WindDirectionDegrees,WindSpeedMPH,WindSpeedGustMPH,Humidity,HourlyPrecipIn,Conditions,Clouds,dailyrainin,SolarRadiationWatts/m^2,SoftwareType,DateUTC
2013-11-15 00:02:00,43.0,36.9,30.12,ENE,71,2.0,3.0,79,0.00,CLR,CLR,0.00,0.0,WeatherDisplay:10.37,2013-11-14 23:02:00,
2013-11-15 00:07:00,43.0,36.9,30.15,ENE,70,1.0,3.0,79,0.00,CLR,CLR,0.00,0.0,WeatherDisplay:10.37,2013-11-14 23:07:00,
2013-11-15 00:12:00,43.0,37.2,30.15,ENE,71,1.0,3.0,80,0.00,CLR,CLR,0.00,0.0,WeatherDisplay:10.37,2013-11-14 23:12:00,
2013-11-15 00:17:00,43.0,37.2,30.15,ENE,68,2.0,3.0,80,0.00,CLR,CLR,0.00,0.0,WeatherDisplay:10.37,2013-11-14 23:17:00,
2013-11-15 00:22:00,43.0,37.2,30.15,NE,56,2.0,3.0,80,0.00,CLR,CLR,0.00,0.0,WeatherDisplay:10.37,2013-11-14 23:22:00,
2013-11-15 00:27:00,42.8,37.1,30.15,NE,48,1.0,3.0,80,0.00,CLR,CLR,0.00,0.0,WeatherDisplay:10.37,2013-11-14 23:27:00,
2013-11-15 00:32:00,42.8,37.1,30.15,NE,52,2.0,4.0,80,0.00,CLR,CLR,0.00,0.0,WeatherDisplay:10.37,2013-11-14 23:32:00,
2013-11-15 00:37:00,42.8,37.1,30.15,ENE,63,2.0,4.0,80,0.00,CLR,CLR,0.00,0.0,WeatherDisplay:10.37,2013-11-14 23:37:00,
2013-11-15 00:42:00,42.8,37.1,30.15,East,81,1.0,3.0,80,0.00,CLR,CLR,0.00,0.0,WeatherDisplay:10.37,2013-11-14 23:42:00,
2013-11-15 00:47:00,42.8,37.1,30.15,ENE,76,2.0,4.0,80,0.00,CLR,CLR,0.00,0.0,WeatherDisplay:10.37,2013-11-14 23:47:00,
2013-11-15 00:52:00,42.9,37.1,30.15,ENE,69,2.0,4.0,80,0.00,CLR,CLR,0.00,0.0,WeatherDisplay:10.37,2013-11-14 23:52:00,
2013-11-15 01:02:00,43.0,37.5,30.15,NE,49,2.0,4.0,81,0.00,CLR,CLR,0.00,0.0,WeatherDisplay:10.37,2013-11-15 00:02:00,
2013-11-15 01:07:00,43.0,37.2,30.12,NE,56,2.0,5.0,80,0.00,CLR,CLR,0.00,0.0,WeatherDisplay:10.37,2013-11-15 00:07:00,
2013-11-15 01:12:00,43.1,37.7,30.12,ENE,63,1.0,5.0,81,0.00,CLR,CLR,0.00,0.0,WeatherDisplay:10.37,2013-11-15 00:12:00,
2013-11-15 01:17:00,43.2,37.7,30.12,ENE,70,2.0,4.0,81,0.00,CLR,CLR,0.00,0.0,WeatherDisplay:10.37,2013-11-15 00:17:00,
2013-11-15 01:22:00,43.2,37.7,30.15,ENE,75,2.0,5.0,81,0.00,CLR,CLR,0.00,0.0,WeatherDisplay:10.37,2013-11-15 00:22:00,
2013-11-15 01:27:00,43.3,37.9,30.15,ENE,69,2.0,4.0,81,0.00,CLR,CLR,0.00,0.0,WeatherDisplay:10.37,2013-11-15 00:27:00,
2013-11-15 01:32:00,43.3,37.9,30.15,ENE,61,2.0,4.0,81,0.00,CLR,CLR,0.00,0.0,WeatherDisplay:10.37,2013-11-15 00:32:00,
2013-11-15 01:37:00,43.3,37.9,30.15,NE,47,2.0,5.0,81,0.00,CLR,CLR,0.00,0.0,WeatherDisplay:10.37,2013-11-15 00:37:00,
2013-11-15 01:42:00,43.3,37.9,30.15,NE,45,2.0,5.0,81,0.00,CLR,CLR,0.00,0.0,WeatherDisplay:10.37,2013-11-15 00:42:00,
2013-11-15 01:47:00,43.3,37.9,30.15,NE,45,1.0,5.0,81,0.00,CLR,CLR,0.00,0.0,WeatherDisplay:10.37,2013-11-15 00:47:00,
2013-11-15 01:52:00,43.5,38.1,30.15,NE,46,2.0,5.0,81,0.00,CLR,CLR,0.00,0.0,WeatherDisplay:10.37,2013-11-15 00:52:00,
2013-11-15 01:57:00,43.5,38.1,30.15,NE,55,2.0,5.0,81,0.00,CLR,CLR,0.00,0.0,WeatherDisplay:10.37,2013-11-15 00:57:00,
2013-11-15 02:02:00,43.5,38.1,30.15,ENE,63,1.0,3.0,81,0.00,CLR,CLR,0.00,0.0,WeatherDisplay:10.37,2013-11-15 01:02:00,
2013-11-15 02:07:00,43.5,38.1,30.15,ENE,64,2.0,5.0,81,0.00,CLR,CLR,0.00,0.0,WeatherDisplay:10.37,2013-11-15 01:07:00,
2013-11-15 02:12:00,43.5,38.1,30.15,NE,52,2.0,3.0,81,0.00,CLR,CLR,0.00,0.0,WeatherDisplay:10.37,2013-11-15 01:12:00,
2013-11-15 02:17:00,43.5,38.1,30.15,NE,49,2.0,4.0,81,0.00,CLR,CLR,0.00,0.0,WeatherDisplay:10.37,2013-11-15 01:17:00,
2013-11-15 02:22:00,43.5,38.1,30.15,NE,48,2.0,5.0,81,0.00,CLR,CLR,0.00,0.0,WeatherDisplay:10.37,2013-11-15 01:22:00,
2013-11-15 02:27:00,43.5,38.1,30.15,NE,53,2.0,3.0,81,0.00,CLR,CLR,0.00,0.0,WeatherDisplay:10.37,2013-11-15 01:27:00,
2013-11-15 02:32:00,43.5,38.4,30.15,NE,51,2.0,4.0,82,0.00,CLR,CLR,0.00,0.0,WeatherDisplay:10.37,2013-11-15 01:32:00,
2013-11-15 02:37:00,43.5,38.4,30.12,NE,41,2.0,4.0,82,0.00,CLR,CLR,0.00,0.0,WeatherDisplay:10.37,2013-11-15 01:37:00,
2013-11-15 02:42:00,43.7,38.6,30.12,NE,39,1.0,3.0,82,0.00,CLR,CLR,0.00,0.0,WeatherDisplay:10.37,2013-11-15 01:42:00,
2013-11-15 02:47:00,43.7,38.6,30.12,NE,50,2.0,5.0,82,0.00,CLR,CLR,0.00,0.0,WeatherDisplay:10.37,2013-11-15 01:47:00,
2013-11-15 02:52:00,43.7,38.6,30.15,ENE,57,2.0,5.0,82,0.00,CLR,CLR,0.00,0.0,WeatherDisplay:10.37,2013-11-15 01:52:00,
2013-11-15 02:57:00,43.7,38.6,30.15,NE,52,2.0,5.0,82,0.00,CLR,CLR,0.00,0.0,WeatherDisplay:10.37,2013-11-15 01:57:00,
2013-11-15 03:02:00,43.7,38.6,30.15,NE,49,1.0,3.0,82,0.00,CLR,CLR,0.00,0.0,WeatherDisplay:10.37,2013-11-15 02:02:00,
2013-11-15 03:07:00,43.7,38.6,30.15,NE,34,2.0,4.0,82,0.00,CLR,CLR,0.00,0.0,WeatherDisplay:10.37,2013-11-15 02:07:00,
2013-11-15 03:12:00,43.7,38.9,30.15,NNE,29,1.0,6.0,83,0.00,CLR,CLR,0.00,0.0,WeatherDisplay:10.37,2013-11-15 02:12:00,
2013-11-15 03:17:00,43.7,38.6,30.15,NNE,29,2.0,6.0,82,0.00,CLR,CLR,0.00,0.0,WeatherDisplay:10.37,2013-11-15 02:17:00,
2013-11-15 03:22:00,43.7,38.9,30.18,NE,39,2.0,3.0,83,0.00,CLR,CLR,0.00,0.0,WeatherDisplay:10.37,2013-11-15 02:22:00,
2013-11-15 03:32:00,43.7,38.9,30.18,NE,35,3.0,5.0,83,0.00,CLR,CLR,0.00,0.0,WeatherDisplay:10.37,2013-11-15 02:32:00,
2013-11-15 03:37:00,43.7,38.9,30.18,NE,34,2.0,5.0,83,0.00,CLR,CLR,0.00,0.0,WeatherDisplay:10.37,2013-11-15 02:37:00,
2013-11-15 03:42:00,43.7,38.9,30.18,NNE,28,3.0,5.0,83,0.00,CLR,CLR,0.00,0.0,WeatherDisplay:10.37,2013-11-15 02:42:00,
2013-11-15 03:47:00,43.7,38.9,30.18,NNE,25,3.0,5.0,83,0.00,CLR,CLR,0.00,0.0,WeatherDisplay:10.37,2013-11-15 02:47:00,
2013-11-15 03:52:00,43.7,38.9,30.15,NNE,25,3.0,5.0,83,0.00,CLR,CLR,0.00,0.0,WeatherDisplay:10.37,2013-11-15 02:52:00,
2013-11-15 03:57:00,43.7,38.9,30.15,NNE,24,3.0,6.0,83,0.00,CLR,CLR,0.00,0.0,WeatherDisplay:10.37,2013-11-15 02:57:00,
2013-11-15 04:07:00,43.5,38.7,30.18,NNE,29,2.0,7.0,83,0.00,CLR,CLR,0.00,0.0,WeatherDisplay:10.37,2013-11-15 03:07:00,
2013-11-15 04:12:00,43.5,39.0,30.18,NE,36,3.0,5.0,84,0.00,CLR,CLR,0.00,0.0,WeatherDisplay:10.37,2013-11-15 03:12:00,
2013-11-15 04:17:00,43.5,39.0,30.18,NE,38,3.0,5.0,84,0.00,CLR,CLR,0.00,0.0,WeatherDisplay:10.37,2013-11-15 03:17:00,
2013-11-15 04:22:00,43.3,38.8,30.18,NE,36,3.0,5.0,84,0.00,CLR,CLR,0.00,0.0,WeatherDisplay:10.37,2013-11-15 03:22:00,
2013-11-15 04:27:00,43.3,38.8,30.18,NNE,33,3.0,6.0,84,0.00,CLR,CLR,0.00,0.0,WeatherDisplay:10.37,2013-11-15 03:27:00,
2013-11-15 04:37:00,43.3,38.8,30.21,NE,34,2.0,5.0,84,0.00,CLR,CLR,0.00,0.0,WeatherDisplay:10.37,2013-11-15 03:37:00,
2013-11-15 04:42:00,43.3,38.8,30.21,NNE,33,2.0,5.0,84,0.00,CLR,CLR,0.00,0.0,WeatherDisplay:10.37,2013-11-15 03:42:00,
2013-11-15 04:47:00,43.3,39.1,30.21,NE,42,3.0,5.0,85,0.00,CLR,CLR,0.00,0.0,WeatherDisplay:10.37,2013-11-15 03:47:00,
2013-11-15 04:52:00,43.3,39.1,30.21,NE,36,3.0,5.0,85,0.00,CLR,CLR,0.00,0.0,WeatherDisplay:10.37,2013-11-15 03:52:00,
2013-11-15 04:57:00,43.5,39.3,30.21,NE,40,2.0,5.0,85,0.00,CLR,CLR,0.00,0.0,WeatherDisplay:10.37,2013-11-15 03:57:00,
2013-11-15 05:02:00,43.5,39.3,30.21,NE,38,3.0,5.0,85,0.00,CLR,CLR,0.00,0.0,WeatherDisplay:10.37,2013-11-15 04:02:00,
2013-11-15 05:07:00,43.5,39.3,30.21,NE,37,2.0,4.0,85,0.00,CLR,CLR,0.00,0.0,WeatherDisplay:10.37,2013-11-15 04:07:00,
2013-11-15 05:12:00,43.5,39.6,30.21,NE,47,2.0,4.0,86,0.00,CLR,CLR,0.00,0.0,WeatherDisplay:10.37,2013-11-15 04:12:00,
2013-11-15 05:17:00,43.7,39.8,30.21,NE,52,2.0,5.0,86,0.00,CLR,CLR,0.00,0.0,WeatherDisplay:10.37,2013-11-15 04:17:00,
2013-11-15 05:22:00,43.7,39.8,30.21,ENE,58,2.0,3.0,86,0.00,CLR,CLR,0.00,0.0,WeatherDisplay:10.37,2013-11-15 04:22:00,
2013-11-15 05:27:00,43.7,39.8,30.21,ENE,62,2.0,4.0,86,0.00,CLR,CLR,0.00,0.0,WeatherDisplay:10.37,2013-11-15 04:27:00,
2013-11-15 05:32:00,43.9,40.0,30.21,NE,49,2.0,4.0,86,0.00,CLR,CLR,0.00,0.0,WeatherDisplay:10.37,2013-11-15 04:32:00,
2013-11-15 05:37:00,43.9,40.0,30.21,NE,51,2.0,5.0,86,0.00,CLR,CLR,0.00,0.0,WeatherDisplay:10.37,2013-11-15 04:37:00,
2013-11-15 05:42:00,43.9,40.0,30.21,NE,54,2.0,3.0,86,0.00,CLR,CLR,0.00,0.0,WeatherDisplay:10.37,2013-11-15 04:42:00,
2013-11-15 05:47:00,43.9,40.0,30.21,NE,48,2.0,4.0,86,0.00,CLR,CLR,0.00,0.0,WeatherDisplay:10.37,2013-11-15 04:47:00,
2013-11-15 05:52:00,44.1,40.1,30.21,NE,47,1.0,3.0,86,0.00,CLR,CLR,0.00,0.0,WeatherDisplay:10.37,2013-11-15 04:52:00,
2013-11-15 05:57:00,44.1,40.1,30.21,NE,40,2.0,5.0,86,0.00,CLR,CLR,0.00,0.0,WeatherDisplay:10.37,2013-11-15 04:57:00,
2013-11-15 06:02:00,44.1,40.1,30.21,NE,36,2.0,5.0,86,0.00,CLR,CLR,0.00,0.0,WeatherDisplay:10.37,2013-11-15 05:02:00,
2013-11-15 06:07:00,44.1,40.4,30.21,NE,46,1.0,5.0,87,0.00,CLR,CLR,0.00,0.0,WeatherDisplay:10.37,2013-11-15 05:07:00,
2013-11-15 06:12:00,44.1,40.1,30.21,ENE,60,2.0,4.0,86,0.00,CLR,CLR,0.00,0.0,WeatherDisplay:10.37,2013-11-15 05:12:00,
2013-11-15 06:17:00,44.1,40.4,30.21,ENE,58,2.0,5.0,87,0.00,OVC,OVC,0.00,0.0,WeatherDisplay:10.37,2013-11-15 05:17:00,
2013-11-15 06:22:00,44.1,40.4,30.21,NE,49,1.0,3.0,87,0.00,OVC,OVC,0.00,0.0,WeatherDisplay:10.37,2013-11-15 05:22:00,
2013-11-15 06:27:00,44.1,40.4,30.21,NE,46,1.0,5.0,87,0.00,OVC,OVC,0.00,0.0,WeatherDisplay:10.37,2013-11-15 05:27:00,
2013-11-15 06:32:00,44.1,40.4,30.21,NE,48,2.0,5.0,87,0.00,OVC,OVC,0.00,0.0,WeatherDisplay:10.37,2013-11-15 05:32:00,
2013-11-15 06:37:00,44.1,40.4,30.21,NE,52,2.0,5.0,87,0.00,OVC,OVC,0.00,0.0,WeatherDisplay:10.37,2013-11-15 05:37:00,
2013-11-15 06:42:00,44.1,40.4,30.21,NE,47,1.0,5.0,87,0.00,OVC,OVC,0.00,0.0,WeatherDisplay:10.37,2013-11-15 05:42:00,
2013-11-15 06:47:00,44.1,40.4,30.21,ENE,58,2.0,4.0,87,0.00,OVC,OVC,0.00,0.0,WeatherDisplay:10.37,2013-11-15 05:47:00,
2013-11-15 06:57:00,44.2,40.6,30.21,ENE,59,2.0,3.0,87,0.00,OVC,OVC,0.00,0.0,WeatherDisplay:10.37,2013-11-15 05:57:00,
2013-11-15 07:02:00,44.2,40.6,30.21,ENE,62,1.0,4.0,87,0.00,OVC,OVC,0.00,0.0,WeatherDisplay:10.37,2013-11-15 06:02:00,
2013-11-15 07:07:00,44.2,40.6,30.21,ENE,60,2.0,5.0,87,0.00,OVC,OVC,0.00,0.0,WeatherDisplay:10.37,2013-11-15 06:07:00,
2013-11-15 07:12:00,44.2,40.6,30.21,NE,49,2.0,3.0,87,0.00,OVC,OVC,0.00,0.0,WeatherDisplay:10.37,2013-11-15 06:12:00,
2013-11-15 07:17:00,44.2,40.6,30.21,NE,45,2.0,3.0,87,0.00,OVC,OVC,0.00,0.0,WeatherDisplay:10.37,2013-11-15 06:17:00,
2013-11-15 07:22:00,44.2,40.6,30.21,NE,43,2.0,5.0,87,0.00,OVC,OVC,0.00,0.0,WeatherDisplay:10.37,2013-11-15 06:22:00,
2013-11-15 07:27:00,44.2,40.6,30.21,NE,53,2.0,6.0,87,0.00,OVC,OVC,0.00,0.0,WeatherDisplay:10.37,2013-11-15 06:27:00,
2013-11-15 07:32:00,44.4,40.8,30.21,ENE,60,1.0,3.0,87,0.00,OVC,OVC,0.00,0.0,WeatherDisplay:10.37,2013-11-15 06:32:00,
2013-11-15 07:37:00,44.4,40.8,30.24,ENE,61,2.0,6.0,87,0.00,OVC,OVC,0.00,0.0,WeatherDisplay:10.37,2013-11-15 06:37:00,
2013-11-15 07:42:00,44.5,40.8,30.24,ENE,59,2.0,6.0,87,0.00,OVC,OVC,0.00,0.0,WeatherDisplay:10.37,2013-11-15 06:42:00,
2013-11-15 07:52:00,44.6,41.0,30.24,NE,56,1.0,5.0,87,0.00,OVC,OVC,0.00,0.0,WeatherDisplay:10.37,2013-11-15 06:52:00,
2013-11-15 07:57:00,44.8,41.1,30.24,ENE,61,2.0,5.0,87,0.00,OVC,OVC,0.00,0.0,WeatherDisplay:10.37,2013-11-15 06:57:00,
2013-11-15 08:02:00,44.8,41.1,30.24,ENE,58,2.0,4.0,87,0.00,OVC,OVC,0.00,0.0,WeatherDisplay:10.37,2013-11-15 07:02:00,
2013-11-15 08:07:00,44.9,41.3,30.24,NE,53,2.0,6.0,87,0.00,OVC,OVC,0.00,0.0,WeatherDisplay:10.37,2013-11-15 07:07:00,
2013-11-15 08:12:00,45.0,41.3,30.24,NE,56,1.0,3.0,87,0.00,OVC,OVC,0.00,0.0,WeatherDisplay:10.37,2013-11-15 07:12:00,
2013-11-15 08:17:00,45.1,41.5,30.24,ENE,76,2.0,5.0,87,0.00,OVC,OVC,0.00,0.0,WeatherDisplay:10.37,2013-11-15 07:17:00,
2013-11-15 08:22:00,45.1,41.5,30.24,ENE,64,1.0,3.0,87,0.00,OVC,OVC,0.00,0.0,WeatherDisplay:10.37,2013-11-15 07:22:00,
2013-11-15 08:27:00,45.3,41.7,30.24,ENE,64,2.0,5.0,87,0.00,OVC,OVC,0.00,0.0,WeatherDisplay:10.37,2013-11-15 07:27:00,
2013-11-15 08:32:00,45.3,41.7,30.24,ENE,58,2.0,5.0,87,0.00,OVC,OVC,0.00,0.0,WeatherDisplay:10.37,2013-11-15 07:32:00,
2013-11-15 08:37:00,45.5,41.9,30.24,ENE,57,1.0,4.0,87,0.00,OVC,OVC,0.00,0.0,WeatherDisplay:10.37,2013-11-15 07:37:00,
2013-11-15 08:42:00,45.6,41.9,30.24,ENE,59,2.0,4.0,87,0.00,OVC,OVC,0.00,0.0,WeatherDisplay:10.37,2013-11-15 07:42:00,
2013-11-15 08:47:00,45.7,42.0,30.24,ENE,60,3.0,5.0,87,0.00,OVC,OVC,0.00,0.0,WeatherDisplay:10.37,2013-11-15 07:47:00,
2013-11-15 08:52:00,45.9,42.2,30.27,ENE,57,3.0,6.0,87,0.00,OVC,OVC,0.00,0.0,WeatherDisplay:10.37,2013-11-15 07:52:00,
2013-11-15 09:02:00,46.0,42.3,30.27,NE,56,2.0,6.0,87,0.00,OVC,OVC,0.00,0.0,WeatherDisplay:10.37,2013-11-15 08:02:00,
2013-11-15 09:07:00,46.0,42.4,30.27,ENE,57,2.0,5.0,87,0.00,OVC,OVC,0.00,10.0,WeatherDisplay:10.37,2013-11-15 08:07:00,
2013-11-15 09:12:00,46.0,42.4,30.27,ENE,59,1.0,3.0,87,0.00,OVC,OVC,0.00,0.0,WeatherDisplay:10.37,2013-11-15 08:12:00,
2013-11-15 09:17:00,46.2,42.6,30.27,NE,55,2.0,5.0,87,0.00,OVC,OVC,0.00,0.0,WeatherDisplay:10.37,2013-11-15 08:17:00,
2013-11-15 09:27:00,46.4,42.7,30.27,NE,56,2.0,4.0,87,0.00,OVC,OVC,0.00,10.0,WeatherDisplay:10.37,2013-11-15 08:27:00,
2013-11-15 09:32:00,46.6,42.9,30.27,ENE,62,1.0,6.0,87,0.00,OVC,OVC,0.00,110.0,WeatherDisplay:10.37,2013-11-15 08:32:00,
2013-11-15 09:37:00,46.8,43.1,30.27,East,79,2.0,6.0,87,0.00,OVC,OVC,0.00,110.0,WeatherDisplay:10.37,2013-11-15 08:37:00,
2013-11-15 09:42:00,46.9,43.3,30.27,ENE,64,3.0,6.0,87,0.00,OVC,OVC,0.00,10.0,WeatherDisplay:10.37,2013-11-15 08:42:00,
2013-11-15 09:47:00,47.1,43.5,30.27,NE,51,0.0,3.0,87,0.00,OVC,OVC,0.00,10.0,WeatherDisplay:10.37,2013-11-15 08:47:00,
2013-11-15 09:52:00,47.3,43.6,30.27,NE,46,2.0,5.0,87,0.00,OVC,OVC,0.00,110.0,WeatherDisplay:10.37,2013-11-15 08:52:00,
2013-11-15 09:57:00,47.5,43.9,30.27,NE,46,2.0,5.0,87,0.00,OVC,OVC,0.00,10.0,WeatherDisplay:10.37,2013-11-15 08:57:00,
2013-11-15 10:02:00,47.8,44.1,30.27,NE,49,3.0,5.0,87,0.00,OVC,OVC,0.00,210.0,WeatherDisplay:10.37,2013-11-15 09:02:00,
2013-11-15 10:12:00,48.3,44.3,30.27,NE,47,2.0,6.0,86,0.00,OVC,OVC,0.00,210.0,WeatherDisplay:10.37,2013-11-15 09:12:00,
2013-11-15 10:17:00,48.6,44.6,30.27,NE,39,5.0,6.0,86,0.00,OVC,OVC,0.00,210.0,WeatherDisplay:10.37,2013-11-15 09:17:00,
2013-11-15 10:22:00,48.9,44.6,30.27,NE,44,2.0,5.0,85,0.00,OVC,OVC,0.00,210.0,WeatherDisplay:10.37,2013-11-15 09:22:00,
2013-11-15 10:27:00,49.3,45.0,30.27,NE,36,5.0,6.0,85,0.00,OVC,OVC,0.00,210.0,WeatherDisplay:10.37,2013-11-15 09:27:00,
2013-11-15 10:32:00,49.5,44.8,30.27,NNE,32,5.0,9.0,84,0.00,OVC,OVC,0.00,210.0,WeatherDisplay:10.37,2013-11-15 09:32:00,
2013-11-15 10:37:00,49.6,45.0,30.27,NE,45,6.0,8.0,84,0.00,OVC,OVC,0.00,210.0,WeatherDisplay:10.37,2013-11-15 09:37:00,
2013-11-15 10:42:00,49.8,44.5,30.27,NE,50,3.0,8.0,82,0.00,OVC,OVC,0.00,210.0,WeatherDisplay:10.37,2013-11-15 09:42:00,
2013-11-15 10:47:00,49.8,44.5,30.27,NE,47,5.0,8.0,82,0.00,OVC,OVC,0.00,210.0,WeatherDisplay:10.37,2013-11-15 09:47:00,
2013-11-15 10:57:00,50.0,44.1,30.30,NE,38,3.0,10.0,80,0.00,OVC,OVC,0.00,110.0,WeatherDisplay:10.37,2013-11-15 09:57:00,
2013-11-15 11:02:00,50.2,44.2,30.30,NE,37,5.0,7.0,80,0.00,OVC,OVC,0.00,110.0,WeatherDisplay:10.37,2013-11-15 10:02:00,
2013-11-15 11:07:00,50.2,43.9,30.27,NE,46,5.0,8.0,79,0.00,OVC,OVC,0.00,110.0,WeatherDisplay:10.37,2013-11-15 10:07:00,
2013-11-15 11:12:00,50.2,43.6,30.27,NE,46,6.0,9.0,78,0.00,OVC,OVC,0.00,110.0,WeatherDisplay:10.37,2013-11-15 10:12:00,
2013-11-15 11:17:00,50.2,43.6,30.27,NE,45,3.0,8.0,78,0.00,OVC,OVC,0.00,110.0,WeatherDisplay:10.37,2013-11-15 10:17:00,
2013-11-15 11:22:00,50.4,43.8,30.27,NE,43,3.0,6.0,78,0.00,OVC,OVC,0.00,110.0,WeatherDisplay:10.37,2013-11-15 10:22:00,
2013-11-15 11:27:00,50.5,43.9,30.27,NE,35,5.0,9.0,78,0.00,OVC,OVC,0.00,110.0,WeatherDisplay:10.37,2013-11-15 10:27:00,
2013-11-15 11:32:00,50.5,43.9,30.27,NE,38,3.0,8.0,78,0.00,OVC,OVC,0.00,10.0,WeatherDisplay:10.37,2013-11-15 10:32:00,
2013-11-15 11:37:00,50.7,44.1,30.27,NNE,32,5.0,8.0,78,0.00,OVC,OVC,0.00,110.0,WeatherDisplay:10.37,2013-11-15 10:37:00,
2013-11-15 11:42:00,50.7,44.1,30.27,NNE,28,5.0,9.0,78,0.00,OVC,OVC,0.00,10.0,WeatherDisplay:10.37,2013-11-15 10:42:00,
2013-11-15 11:47:00,50.9,44.3,30.27,NE,44,2.0,6.0,78,0.00,OVC,OVC,0.00,10.0,WeatherDisplay:10.37,2013-11-15 10:47:00,
2013-11-15 11:52:00,50.9,44.3,30.27,NE,46,3.0,6.0,78,0.00,OVC,OVC,0.00,10.0,WeatherDisplay:10.37,2013-11-15 10:52:00,
2013-11-15 11:57:00,51.1,44.5,30.27,NNE,29,5.0,7.0,78,0.00,OVC,OVC,0.00,110.0,WeatherDisplay:10.37,2013-11-15 10:57:00,
2013-11-15 12:02:00,51.3,44.6,30.27,NE,39,3.0,6.0,78,0.00,OVC,OVC,0.00,110.0,WeatherDisplay:10.37,2013-11-15 11:02:00,
2013-11-15 12:07:00,51.5,44.9,30.27,NE,51,5.0,6.0,78,0.00,OVC,OVC,0.00,110.0,WeatherDisplay:10.37,2013-11-15 11:07:00,
2013-11-15 12:12:00,51.6,45.0,30.27,NE,56,5.0,9.0,78,0.00,OVC,OVC,0.00,110.0,WeatherDisplay:10.37,2013-11-15 11:12:00,
2013-11-15 12:17:00,51.9,44.9,30.27,ENE,60,3.0,9.0,77,0.00,OVC,OVC,0.00,110.0,WeatherDisplay:10.37,2013-11-15 11:17:00,
2013-11-15 12:22:00,52.2,44.8,30.27,ENE,62,3.0,8.0,76,0.00,OVC,OVC,0.00,110.0,WeatherDisplay:10.37,2013-11-15 11:22:00,
2013-11-15 12:27:00,52.3,45.0,30.27,ENE,70,5.0,7.0,76,0.00,OVC,OVC,0.00,110.0,WeatherDisplay:10.37,2013-11-15 11:27:00,
2013-11-15 12:32:00,52.5,44.8,30.27,ENE,73,5.0,7.0,75,0.00,OVC,OVC,0.00,110.0,WeatherDisplay:10.37,2013-11-15 11:32:00,
2013-11-15 12:37:00,52.7,45.0,30.27,East,80,3.0,6.0,75,0.00,OVC,OVC,0.00,110.0,WeatherDisplay:10.37,2013-11-15 11:37:00,
2013-11-15 12:42:00,52.9,45.2,30.27,ENE,58,6.0,8.0,75,0.00,OVC,OVC,0.00,110.0,WeatherDisplay:10.37,2013-11-15 11:42:00,
2013-11-15 12:47:00,53.1,45.0,30.27,NE,54,5.0,7.0,74,0.00,OVC,OVC,0.00,110.0,WeatherDisplay:10.37,2013-11-15 11:47:00,
2013-11-15 12:52:00,53.2,45.2,30.27,ENE,65,5.0,8.0,74,0.00,OVC,OVC,0.00,110.0,WeatherDisplay:10.37,2013-11-15 11:52:00,
2013-11-15 12:57:00,53.4,44.9,30.27,ENE,77,5.0,7.0,73,0.00,OVC,OVC,0.00,110.0,WeatherDisplay:10.37,2013-11-15 11:57:00,
2013-11-15 13:02:00,53.6,45.2,30.27,East,81,3.0,6.0,73,0.00,OVC,OVC,0.00,110.0,WeatherDisplay:10.37,2013-11-15 12:02:00,
2013-11-15 13:07:00,53.8,45.0,30.27,ENE,58,5.0,9.0,72,0.00,OVC,OVC,0.00,110.0,WeatherDisplay:10.37,2013-11-15 12:07:00,
2013-11-15 13:17:00,53.8,44.6,30.27,ENE,67,6.0,10.0,71,0.00,OVC,OVC,0.00,10.0,WeatherDisplay:10.37,2013-11-15 12:17:00,
2013-11-15 13:22:00,53.6,44.5,30.27,ENE,62,5.0,9.0,71,0.00,OVC,OVC,0.00,10.0,WeatherDisplay:10.37,2013-11-15 12:22:00,
2013-11-15 13:32:00,53.6,44.4,30.27,ENE,61,5.0,6.0,71,0.00,OVC,OVC,0.00,10.0,WeatherDisplay:10.37,2013-11-15 12:32:00,
2013-11-15 13:37:00,53.6,44.4,30.27,NE,52,3.0,6.0,71,0.00,OVC,OVC,0.00,10.0,WeatherDisplay:10.37,2013-11-15 12:37:00,
2013-11-15 13:42:00,53.6,44.4,30.27,NE,48,5.0,8.0,71,0.00,OVC,OVC,0.00,10.0,WeatherDisplay:10.37,2013-11-15 12:42:00,
2013-11-15 13:47:00,53.6,44.0,30.27,ENE,68,5.0,7.0,70,0.00,OVC,OVC,0.00,10.0,WeatherDisplay:10.37,2013-11-15 12:47:00,
2013-11-15 13:52:00,53.4,44.2,30.30,East,80,5.0,8.0,71,0.00,OVC,OVC,0.00,10.0,WeatherDisplay:10.37,2013-11-15 12:52:00,
2013-11-15 13:57:00,53.4,44.2,30.30,ENE,76,5.0,7.0,71,0.00,OVC,OVC,0.00,10.0,WeatherDisplay:10.37,2013-11-15 12:57:00,
2013-11-15 14:02:00,53.4,44.2,30.30,East,84,2.0,6.0,71,0.00,OVC,OVC,0.00,10.0,WeatherDisplay:10.37,2013-11-15 13:02:00,
2013-11-15 14:07:00,53.6,44.4,30.30,East,79,5.0,6.0,71,0.00,OVC,OVC,0.00,10.0,WeatherDisplay:10.37,2013-11-15 13:07:00,
2013-11-15 14:12:00,53.8,45.0,30.30,ENE,61,2.0,6.0,72,0.00,OVC,OVC,0.00,10.0,WeatherDisplay:10.37,2013-11-15 13:12:00,
2013-11-15 14:17:00,54.0,45.1,30.30,ENE,62,5.0,7.0,72,0.00,OVC,OVC,0.00,10.0,WeatherDisplay:10.37,2013-11-15 13:17:00,
2013-11-15 14:22:00,54.1,45.3,30.30,ENE,70,3.0,6.0,72,0.00,OVC,OVC,0.00,10.0,WeatherDisplay:10.37,2013-11-15 13:22:00,
2013-11-15 14:32:00,54.0,45.1,30.30,NE,44,2.0,5.0,72,0.00,OVC,OVC,0.00,10.0,WeatherDisplay:10.37,2013-11-15 13:32:00,
2013-11-15 14:37:00,53.8,45.0,30.33,NE,48,3.0,6.0,72,0.00,OVC,OVC,0.00,0.0,WeatherDisplay:10.37,2013-11-15 13:37:00,
2013-11-15 14:42:00,53.6,44.8,30.33,NE,48,3.0,6.0,72,0.00,OVC,OVC,0.00,0.0,WeatherDisplay:10.37,2013-11-15 13:42:00,
2013-11-15 14:47:00,53.5,45.0,30.33,NE,49,2.0,5.0,73,0.00,OVC,OVC,0.00,0.0,WeatherDisplay:10.37,2013-11-15 13:47:00,
2013-11-15 14:52:00,53.4,45.0,30.30,NE,51,2.0,5.0,73,0.00,OVC,OVC,0.00,0.0,WeatherDisplay:10.37,2013-11-15 13:52:00,
2013-11-15 14:57:00,53.1,44.6,30.30,NE,45,3.0,5.0,73,0.00,OVC,OVC,0.00,0.0,WeatherDisplay:10.37,2013-11-15 13:57:00,
2013-11-15 15:07:00,52.9,44.5,30.33,NE,45,3.0,6.0,73,0.00,OVC,OVC,0.00,0.0,WeatherDisplay:10.37,2013-11-15 14:07:00,
2013-11-15 15:12:00,52.7,44.7,30.33,ENE,60,3.0,7.0,74,0.00,OVC,OVC,0.00,0.0,WeatherDisplay:10.37,2013-11-15 14:12:00,
2013-11-15 15:17:00,52.7,44.6,30.33,ENE,59,3.0,6.0,74,0.00,OVC,OVC,0.00,0.0,WeatherDisplay:10.37,2013-11-15 14:17:00,
2013-11-15 15:22:00,52.5,44.5,30.30,ENE,64,2.0,6.0,74,0.00,OVC,OVC,0.00,0.0,WeatherDisplay:10.37,2013-11-15 14:22:00,
2013-11-15 15:32:00,52.5,44.8,30.30,NE,45,3.0,5.0,75,0.00,OVC,OVC,0.00,0.0,WeatherDisplay:10.37,2013-11-15 14:32:00,
2013-11-15 15:37:00,52.3,44.6,30.33,NE,50,3.0,5.0,75,0.00,OVC,OVC,0.00,0.0,WeatherDisplay:10.37,2013-11-15 14:37:00,
2013-11-15 15:42:00,52.2,44.5,30.33,NE,55,2.0,4.0,75,0.00,OVC,OVC,0.00,0.0,WeatherDisplay:10.37,2013-11-15 14:42:00,
2013-11-15 15:47:00,52.0,44.3,30.33,ENE,60,3.0,4.0,75,0.00,OVC,OVC,0.00,0.0,WeatherDisplay:10.37,2013-11-15 14:47:00,
2013-11-15 15:52:00,51.8,44.1,30.33,ENE,58,2.0,5.0,75,0.00,OVC,OVC,0.00,0.0,WeatherDisplay:10.37,2013-11-15 14:52:00,
2013-11-15 15:57:00,51.6,44.3,30.33,NE,53,2.0,4.0,76,0.00,OVC,OVC,0.00,0.0,WeatherDisplay:10.37,2013-11-15 14:57:00,
2013-11-15 16:02:00,51.3,44.0,30.33,NE,52,2.0,4.0,76,0.00,OVC,OVC,0.00,0.0,WeatherDisplay:10.37,2013-11-15 15:02:00,
2013-11-15 16:07:00,50.9,43.6,30.33,NE,44,1.0,4.0,76,0.00,OVC,OVC,0.00,0.0,WeatherDisplay:10.37,2013-11-15 15:07:00,
2013-11-15 16:12:00,50.7,43.4,30.33,NE,38,3.0,5.0,76,0.00,OVC,OVC,0.00,0.0,WeatherDisplay:10.37,2013-11-15 15:12:00,
2013-11-15 16:22:00,50.2,43.2,30.33,NNE,25,3.0,5.0,77,0.00,OVC,OVC,0.00,0.0,WeatherDisplay:10.37,2013-11-15 15:22:00,
2013-11-15 16:27:00,50.0,43.1,30.33,NNE,22,3.0,6.0,77,0.00,OVC,OVC,0.00,0.0,WeatherDisplay:10.37,2013-11-15 15:27:00,
2013-11-15 16:32:00,49.8,43.2,30.33,NNE,26,3.0,5.0,78,0.00,OVC,OVC,0.00,0.0,WeatherDisplay:10.37,2013-11-15 15:32:00,
2013-11-15 16:37:00,49.6,43.4,30.30,NE,35,2.0,5.0,79,0.00,CLR,CLR,0.00,0.0,WeatherDisplay:10.37,2013-11-15 15:37:00,
2013-11-15 16:42:00,49.5,43.2,30.30,NNE,30,2.0,5.0,79,0.00,CLR,CLR,0.00,0.0,WeatherDisplay:10.37,2013-11-15 15:42:00,
2013-11-15 16:47:00,49.3,43.4,30.30,NNE,28,2.0,3.0,80,0.00,CLR,CLR,0.00,0.0,WeatherDisplay:10.37,2013-11-15 15:47:00,
2013-11-15 16:52:00,49.1,43.2,30.33,NNE,28,2.0,4.0,80,0.00,CLR,CLR,0.00,0.0,WeatherDisplay:10.37,2013-11-15 15:52:00,
2013-11-15 16:57:00,49.1,43.2,30.33,NNE,33,2.0,3.0,80,0.00,CLR,CLR,0.00,0.0,WeatherDisplay:10.37,2013-11-15 15:57:00,
2013-11-15 17:07:00,48.7,43.2,30.33,NNE,26,5.0,6.0,81,0.00,CLR,CLR,0.00,0.0,WeatherDisplay:10.37,2013-11-15 16:07:00,
2013-11-15 17:12:00,48.6,43.0,30.33,NNE,24,3.0,6.0,81,0.00,CLR,CLR,0.00,0.0,WeatherDisplay:10.37,2013-11-15 16:12:00,
2013-11-15 17:17:00,48.4,42.8,30.33,NNE,21,2.0,5.0,81,0.00,CLR,CLR,0.00,0.0,WeatherDisplay:10.37,2013-11-15 16:17:00,
2013-11-15 17:22:00,48.2,42.6,30.33,NNE,22,0.0,4.0,81,0.00,CLR,CLR,0.00,0.0,WeatherDisplay:10.37,2013-11-15 16:22:00,
2013-11-15 17:27:00,48.0,42.8,30.33,NNE,23,2.0,3.0,82,0.00,CLR,CLR,0.00,0.0,WeatherDisplay:10.37,2013-11-15 16:27:00,
2013-11-15 17:32:00,47.8,42.6,30.33,NNE,26,2.0,4.0,82,0.00,CLR,CLR,0.00,0.0,WeatherDisplay:10.37,2013-11-15 16:32:00,
2013-11-15 17:37:00,47.7,42.8,30.33,NNE,30,2.0,3.0,83,0.00,CLR,CLR,0.00,0.0,WeatherDisplay:10.37,2013-11-15 16:37:00,
2013-11-15 17:42:00,47.5,42.6,30.33,NNE,26,2.0,4.0,83,0.00,CLR,CLR,0.00,0.0,WeatherDisplay:10.37,2013-11-15 16:42:00,
2013-11-15 17:47:00,47.3,42.4,30.33,NNE,26,3.0,5.0,83,0.00,CLR,CLR,0.00,0.0,WeatherDisplay:10.37,2013-11-15 16:47:00,
2013-11-15 17:52:00,47.3,42.4,30.33,NNE,30,2.0,3.0,83,0.00,CLR,CLR,0.00,0.0,WeatherDisplay:10.37,2013-11-15 16:52:00,
2013-11-15 17:57:00,47.1,42.2,30.33,NNE,29,3.0,5.0,83,0.00,CLR,CLR,0.00,0.0,WeatherDisplay:10.37,2013-11-15 16:57:00,
2013-11-15 18:02:00,47.0,42.5,30.33,NNE,22,5.0,6.0,84,0.00,CLR,CLR,0.00,0.0,WeatherDisplay:10.37,2013-11-15 17:02:00,
2013-11-15 18:07:00,46.9,42.4,30.33,NNE,23,3.0,6.0,84,0.00,CLR,CLR,0.00,0.0,WeatherDisplay:10.37,2013-11-15 17:07:00,
2013-11-15 18:12:00,46.9,42.4,30.33,NNE,23,2.0,6.0,84,0.00,CLR,CLR,0.00,0.0,WeatherDisplay:10.37,2013-11-15 17:12:00,
2013-11-15 18:17:00,46.8,42.2,30.33,NNE,27,3.0,5.0,84,0.00,CLR,CLR,0.00,0.0,WeatherDisplay:10.37,2013-11-15 17:17:00,
2013-11-15 18:22:00,46.6,42.0,30.36,NNE,28,3.0,5.0,84,0.00,CLR,CLR,0.00,0.0,WeatherDisplay:10.37,2013-11-15 17:22:00,
2013-11-15 18:27:00,46.4,41.8,30.36,NNE,27,3.0,5.0,84,0.00,CLR,CLR,0.00,0.0,WeatherDisplay:10.37,2013-11-15 17:27:00,
2013-11-15 18:32:00,46.4,41.8,30.36,NNE,28,2.0,6.0,84,0.00,CLR,CLR,0.00,0.0,WeatherDisplay:10.37,2013-11-15 17:32:00,
2013-11-15 18:37:00,46.2,42.0,30.36,NNE,26,2.0,5.0,85,0.00,CLR,CLR,0.00,0.0,WeatherDisplay:10.37,2013-11-15 17:37:00,
2013-11-15 18:42:00,46.2,42.0,30.36,NNE,26,2.0,5.0,85,0.00,CLR,CLR,0.00,0.0,WeatherDisplay:10.37,2013-11-15 17:42:00,
2013-11-15 18:52:00,45.9,41.9,30.36,NNE,23,2.0,3.0,86,0.00,CLR,CLR,0.00,0.0,WeatherDisplay:10.37,2013-11-15 17:52:00,
2013-11-15 18:57:00,45.7,41.7,30.36,NNE,24,1.0,3.0,86,0.00,CLR,CLR,0.00,0.0,WeatherDisplay:10.37,2013-11-15 17:57:00,
2013-11-15 19:02:00,45.5,41.6,30.36,NNE,24,1.0,2.0,86,0.00,CLR,CLR,0.00,0.0,WeatherDisplay:10.37,2013-11-15 18:02:00,
2013-11-15 19:07:00,45.3,41.1,30.36,NNE,23,2.0,3.0,85,0.00,CLR,CLR,0.00,0.0,WeatherDisplay:10.37,2013-11-15 18:07:00,
2013-11-15 19:12:00,45.1,41.2,30.36,NNE,22,2.0,3.0,86,0.00,CLR,CLR,0.00,0.0,WeatherDisplay:10.37,2013-11-15 18:12:00,
2013-11-15 19:17:00,45.0,41.0,30.36,NNE,23,2.0,3.0,86,0.00,CLR,CLR,0.00,0.0,WeatherDisplay:10.37,2013-11-15 18:17:00,
2013-11-15 19:22:00,44.8,40.8,30.36,NNE,25,1.0,3.0,86,0.00,CLR,CLR,0.00,0.0,WeatherDisplay:10.37,2013-11-15 18:22:00,
2013-11-15 19:27:00,44.5,40.6,30.36,NNE,23,2.0,2.0,86,0.00,CLR,CLR,0.00,0.0,WeatherDisplay:10.37,2013-11-15 18:27:00,
2013-11-15 19:32:00,44.4,40.5,30.36,NNE,20,2.0,3.0,86,0.00,CLR,CLR,0.00,0.0,WeatherDisplay:10.37,2013-11-15 18:32:00,
2013-11-15 19:37:00,44.2,40.6,30.36,NNE,20,2.0,3.0,87,0.00,CLR,CLR,0.00,0.0,WeatherDisplay:10.37,2013-11-15 18:37:00,
2013-11-15 19:42:00,44.1,40.4,30.36,NNE,22,1.0,3.0,87,0.00,CLR,CLR,0.00,0.0,WeatherDisplay:10.37,2013-11-15 18:42:00,
2013-11-15 19:47:00,44.1,40.4,30.36,NNE,22,2.0,3.0,87,0.00,CLR,CLR,0.00,0.0,WeatherDisplay:10.37,2013-11-15 18:47:00,
2013-11-15 19:52:00,43.9,40.3,30.36,NNE,22,1.0,3.0,87,0.00,CLR,CLR,0.00,0.0,WeatherDisplay:10.37,2013-11-15 18:52:00,
2013-11-15 19:57:00,43.9,40.3,30.36,NNE,22,2.0,3.0,87,0.00,CLR,CLR,0.00,0.0,WeatherDisplay:10.37,2013-11-15 18:57:00,
2013-11-15 20:02:00,43.7,40.1,30.36,NNE,22,1.0,2.0,87,0.00,CLR,CLR,0.00,0.0,WeatherDisplay:10.37,2013-11-15 19:02:00,
2013-11-15 20:07:00,43.6,39.9,30.36,NE,39,0.0,2.0,87,0.00,CLR,CLR,0.00,0.0,WeatherDisplay:10.37,2013-11-15 19:07:00,
2013-11-15 20:12:00,43.3,39.7,30.36,ENE,65,0.0,1.0,87,0.00,CLR,CLR,0.00,0.0,WeatherDisplay:10.37,2013-11-15 19:12:00,
2013-11-15 20:17:00,43.2,39.6,30.36,ENE,68,0.0,0.0,87,0.00,CLR,CLR,0.00,0.0,WeatherDisplay:10.37,2013-11-15 19:17:00,
2013-11-15 20:22:00,43.0,39.4,30.39,NE,53,1.0,2.0,87,0.00,CLR,CLR,0.00,0.0,WeatherDisplay:10.37,2013-11-15 19:22:00,
2013-11-15 20:27:00,42.8,39.2,30.39,NNE,19,2.0,3.0,87,0.00,CLR,CLR,0.00,0.0,WeatherDisplay:10.37,2013-11-15 19:27:00,
2013-11-15 20:32:00,42.8,39.2,30.39,NNE,13,2.0,3.0,87,0.00,CLR,CLR,0.00,0.0,WeatherDisplay:10.37,2013-11-15 19:32:00,
2013-11-15 20:37:00,42.6,39.3,30.39,NNE,20,0.0,2.0,88,0.00,CLR,CLR,0.00,0.0,WeatherDisplay:10.37,2013-11-15 19:37:00,
2013-11-15 20:42:00,42.6,39.3,30.39,SE,130,2.0,3.0,88,0.00,CLR,CLR,0.00,0.0,WeatherDisplay:10.37,2013-11-15 19:42:00,
2013-11-15 20:47:00,42.4,39.1,30.39,SSE,160,2.0,5.0,88,0.00,CLR,CLR,0.00,0.0,WeatherDisplay:10.37,2013-11-15 19:47:00,
2013-11-15 20:52:00,42.4,39.1,30.39,South,170,1.0,3.0,88,0.00,CLR,CLR,0.00,0.0,WeatherDisplay:10.37,2013-11-15 19:52:00,
2013-11-15 20:57:00,42.3,39.0,30.39,SW,215,1.0,2.0,88,0.00,CLR,CLR,0.00,0.0,WeatherDisplay:10.37,2013-11-15 19:57:00,
2013-11-15 21:02:00,42.1,38.8,30.39,WNW,285,0.0,0.0,88,0.00,CLR,CLR,0.00,0.0,WeatherDisplay:10.37,2013-11-15 20:02:00,
2013-11-15 21:07:00,41.9,38.6,30.42,WNW,292,0.0,0.0,88,0.00,CLR,CLR,0.00,0.0,WeatherDisplay:10.37,2013-11-15 20:07:00,
2013-11-15 21:12:00,41.7,38.4,30.42,WNW,292,0.0,0.0,88,0.00,CLR,CLR,0.00,0.0,WeatherDisplay:10.37,2013-11-15 20:12:00,
2013-11-15 21:17:00,41.5,38.3,30.42,WSW,246,0.0,0.0,88,0.00,CLR,CLR,0.00,0.0,WeatherDisplay:10.37,2013-11-15 20:17:00,
2013-11-15 21:22:00,41.4,38.1,30.36,SW,236,0.0,0.0,88,0.00,CLR,CLR,0.00,0.0,WeatherDisplay:10.37,2013-11-15 20:22:00,
2013-11-15 21:27:00,41.2,37.9,30.36,WSW,258,0.0,0.0,88,0.00,CLR,CLR,0.00,0.0,WeatherDisplay:10.37,2013-11-15 20:27:00,
2013-11-15 21:32:00,41.2,37.9,30.36,West,279,0.0,0.0,88,0.00,CLR,CLR,0.00,0.0,WeatherDisplay:10.37,2013-11-15 20:32:00,
2013-11-15 21:37:00,41.0,37.7,30.39,WNW,292,0.0,0.0,88,0.00,CLR,CLR,0.00,0.0,WeatherDisplay:10.37,2013-11-15 20:37:00,
2013-11-15 21:42:00,40.8,37.8,30.39,WSW,256,0.0,0.0,89,0.00,CLR,CLR,0.00,0.0,WeatherDisplay:10.37,2013-11-15 20:42:00,
2013-11-15 21:47:00,40.6,37.7,30.39,WSW,240,0.0,0.0,89,0.00,CLR,CLR,0.00,0.0,WeatherDisplay:10.37,2013-11-15 20:47:00,
2013-11-15 21:52:00,40.5,37.5,30.39,WSW,250,0.0,0.0,89,0.00,CLR,CLR,0.00,0.0,WeatherDisplay:10.37,2013-11-15 20:52:00,
2013-11-15 21:57:00,40.5,37.5,30.39,WSW,247,0.0,0.0,89,0.00,CLR,CLR,0.00,0.0,WeatherDisplay:10.37,2013-11-15 20:57:00,
2013-11-15 22:02:00,40.3,37.3,30.39,WSW,238,0.0,0.0,89,0.00,CLR,CLR,0.00,0.0,WeatherDisplay:10.37,2013-11-15 21:02:00,
2013-11-15 22:07:00,40.2,37.2,30.39,WSW,257,0.0,0.0,89,0.00,CLR,CLR,0.00,0.0,WeatherDisplay:10.37,2013-11-15 21:07:00,
2013-11-15 22:12:00,39.9,36.9,30.39,West,270,0.0,0.0,89,0.00,CLR,CLR,0.00,0.0,WeatherDisplay:10.37,2013-11-15 21:12:00,
2013-11-15 22:17:00,39.9,36.9,30.39,West,265,0.0,0.0,89,0.00,CLR,CLR,0.00,0.0,WeatherDisplay:10.37,2013-11-15 21:17:00,
2013-11-15 22:22:00,39.7,36.8,30.39,West,261,0.0,0.0,89,0.00,CLR,CLR,0.00,0.0,WeatherDisplay:10.37,2013-11-15 21:22:00,
2013-11-15 22:27:00,39.6,36.6,30.39,West,264,0.0,0.0,89,0.00,CLR,CLR,0.00,0.0,WeatherDisplay:10.37,2013-11-15 21:27:00,
2013-11-15 22:32:00,39.4,36.4,30.39,West,280,0.0,0.0,89,0.00,CLR,CLR,0.00,0.0,WeatherDisplay:10.37,2013-11-15 21:32:00,
2013-11-15 22:37:00,39.4,36.7,30.39,WNW,291,0.0,0.0,90,0.00,CLR,CLR,0.00,0.0,WeatherDisplay:10.37,2013-11-15 21:37:00,
2013-11-15 22:42:00,39.4,36.7,30.39,WNW,292,0.0,0.0,90,0.00,CLR,CLR,0.00,0.0,WeatherDisplay:10.37,2013-11-15 21:42:00,
2013-11-15 22:47:00,39.4,36.7,30.39,WNW,292,0.0,0.0,90,0.00,CLR,CLR,0.00,0.0,WeatherDisplay:10.37,2013-11-15 21:47:00,
2013-11-15 22:52:00,39.3,36.6,30.39,WNW,292,0.0,0.0,90,0.00,CLR,CLR,0.00,0.0,WeatherDisplay:10.37,2013-11-15 21:52:00,
2013-11-15 22:57:00,39.2,36.5,30.39,WNW,292,0.0,0.0,90,0.00,CLR,CLR,0.00,0.0,WeatherDisplay:10.37,2013-11-15 21:57:00,
2013-11-15 23:02:00,39.2,36.5,30.39,WNW,292,0.0,0.0,90,0.00,CLR,CLR,0.00,0.0,WeatherDisplay:10.37,2013-11-15 22:02:00,
2013-11-15 23:07:00,39.0,36.6,30.39,WNW,292,0.0,0.0,91,0.00,CLR,CLR,0.00,0.0,WeatherDisplay:10.37,2013-11-15 22:07:00,
2013-11-15 23:12:00,39.0,36.6,30.39,West,279,0.0,0.0,91,0.00,CLR,CLR,0.00,0.0,WeatherDisplay:10.37,2013-11-15 22:12:00,
2013-11-15 23:17:00,39.2,36.8,30.39,West,269,0.0,0.0,91,0.00,CLR,CLR,0.00,0.0,WeatherDisplay:10.37,2013-11-15 22:17:00,
2013-11-15 23:22:00,39.0,36.9,30.39,West,266,0.0,0.0,92,0.00,CLR,CLR,0.00,0.0,WeatherDisplay:10.37,2013-11-15 22:22:00,
2013-11-15 23:27:00,39.0,36.9,30.39,WSW,257,0.0,0.0,92,0.00,CLR,CLR,0.00,0.0,WeatherDisplay:10.37,2013-11-15 22:27:00,
2013-11-15 23:32:00,39.0,36.9,30.39,WSW,254,0.0,0.0,92,0.00,CLR,CLR,0.00,0.0,WeatherDisplay:10.37,2013-11-15 22:32:00,
2013-11-15 23:37:00,39.0,36.9,30.39,West,259,0.0,0.0,92,0.00,CLR,CLR,0.00,0.0,WeatherDisplay:10.37,2013-11-15 22:37:00,
2013-11-15 23:42:00,38.8,36.7,30.39,WSW,258,0.0,0.0,92,0.00,CLR,CLR,0.00,0.0,WeatherDisplay:10.37,2013-11-15 22:42:00,
2013-11-15 23:47:00,38.8,36.7,30.39,WSW,250,0.0,0.0,92,0.00,CLR,CLR,0.00,0.0,WeatherDisplay:10.37,2013-11-15 22:47:00,
2013-11-15 23:52:00,38.7,36.5,30.39,West,263,0.0,0.0,92,0.00,CLR,CLR,0.00,0.0,WeatherDisplay:10.37,2013-11-15 22:52:00,
2013-11-15 23:57:00,38.6,36.5,30.39,WNW,285,0.0,0.0,92,0.00,CLR,CLR,0.00,0.0,WeatherDisplay:10.37,2013-11-15 22:57:00,